createdAt,value
2023-06-30T00:00:14.501Z,35.87
2023-06-30T00:01:13.938Z,35.97
2023-06-30T00:02:13.943Z,35.95
2023-06-30T00:03:14.007Z,35.94
2023-06-30T00:04:13.987Z,35.97
2023-06-30T00:05:13.890Z,35.95
2023-06-30T00:06:13.869Z,35.98
2023-06-30T00:07:13.886Z,36.02
2023-06-30T00:08:13.841Z,36.00
2023-06-30T00:09:13.831Z,35.99
2023-06-30T00:10:13.852Z,36.05
2023-06-30T00:11:13.841Z,36.04
2023-06-30T00:12:13.829Z,36.02
2023-06-30T00:13:13.835Z,36.02
2023-06-30T00:14:13.820Z,36.05
2023-06-30T00:15:13.824Z,36.08
2023-06-30T00:16:13.886Z,36.07
2023-06-30T00:17:13.807Z,36.05
2023-06-30T00:18:13.811Z,36.09
2023-06-30T00:19:13.818Z,36.06
2023-06-30T00:20:13.840Z,36.14
2023-06-30T00:21:13.875Z,36.11
2023-06-30T00:22:13.865Z,36.12
2023-06-30T00:23:13.863Z,36.13
2023-06-30T00:24:13.861Z,36.18
2023-06-30T00:25:15.394Z,36.22
2023-06-30T00:26:13.855Z,36.17
2023-06-30T00:27:13.842Z,36.19
2023-06-30T00:28:13.829Z,36.21
2023-06-30T00:29:13.838Z,36.22
2023-06-30T00:30:13.828Z,36.21
2023-06-30T00:31:13.834Z,36.22
2023-06-30T00:32:13.804Z,36.27
2023-06-30T00:33:13.802Z,36.26
2023-06-30T00:34:13.811Z,36.26
2023-06-30T00:35:13.868Z,36.28
2023-06-30T00:36:13.896Z,36.32
2023-06-30T00:37:13.950Z,36.31
2023-06-30T00:38:14.002Z,36.29
2023-06-30T00:39:14.026Z,36.32
2023-06-30T00:40:14.076Z,36.37
2023-06-30T00:41:14.108Z,36.40
2023-06-30T00:42:14.163Z,36.36
2023-06-30T00:43:14.203Z,36.36
2023-06-30T00:44:14.246Z,36.37
2023-06-30T00:45:14.304Z,36.42
2023-06-30T00:46:14.336Z,36.51
2023-06-30T00:47:14.439Z,36.47
2023-06-30T00:48:14.415Z,36.41
2023-06-30T00:49:14.462Z,36.52
2023-06-30T00:50:14.520Z,36.52
2023-06-30T00:51:14.564Z,36.52
2023-06-30T00:52:14.595Z,36.47
2023-06-30T00:53:14.658Z,36.52
2023-06-30T00:54:14.695Z,36.53
2023-06-30T00:55:14.765Z,36.56
2023-06-30T00:56:14.789Z,36.57
2023-06-30T00:57:14.834Z,36.60
2023-06-30T00:58:14.875Z,36.60
2023-06-30T00:59:14.947Z,36.60
2023-06-30T01:00:15.069Z,36.61
2023-06-30T01:01:15.069Z,36.58
2023-06-30T01:02:15.054Z,36.59
2023-06-30T01:03:15.245Z,36.59
2023-06-30T01:04:15.209Z,36.63
2023-06-30T01:05:15.202Z,36.63
2023-06-30T01:06:15.239Z,36.73
2023-06-30T01:07:15.378Z,36.66
2023-06-30T01:08:15.349Z,36.67
2023-06-30T01:09:15.380Z,36.75
2023-06-30T01:10:15.448Z,36.64
2023-06-30T01:11:15.486Z,36.66
2023-06-30T01:12:15.555Z,36.73
2023-06-30T01:13:15.587Z,36.70
2023-06-30T01:14:15.629Z,36.74
2023-06-30T01:15:15.696Z,36.73
2023-06-30T01:16:15.768Z,36.71
2023-06-30T01:17:15.768Z,36.81
2023-06-30T01:18:15.803Z,36.79
2023-06-30T01:19:15.863Z,36.77
2023-06-30T01:20:15.901Z,36.75
2023-06-30T01:21:15.942Z,36.84
2023-06-30T01:22:15.997Z,36.80
2023-06-30T01:23:16.036Z,36.92
2023-06-30T01:24:16.089Z,36.87
2023-06-30T01:25:16.139Z,36.90
2023-06-30T01:26:16.241Z,36.86
2023-06-30T01:27:16.264Z,36.97
2023-06-30T01:28:16.297Z,36.89
2023-06-30T01:29:16.413Z,36.91
2023-06-30T01:30:16.407Z,36.86
2023-06-30T01:31:16.548Z,36.92
2023-06-30T01:32:16.511Z,36.94
2023-06-30T01:33:16.584Z,36.89
2023-06-30T01:34:16.631Z,36.97
2023-06-30T01:35:16.688Z,36.96
2023-06-30T01:36:16.732Z,36.97
2023-06-30T01:37:16.738Z,37.00
2023-06-30T01:38:16.753Z,36.95
2023-06-30T01:39:16.735Z,37.01
2023-06-30T01:40:16.734Z,37.02
2023-06-30T01:41:16.736Z,36.94
2023-06-30T01:42:16.714Z,36.95
2023-06-30T01:43:16.703Z,36.96
2023-06-30T01:44:16.696Z,36.99
2023-06-30T01:45:16.718Z,36.97
2023-06-30T01:46:16.765Z,37.01
2023-06-30T01:47:16.707Z,37.03
2023-06-30T01:48:16.754Z,36.98
2023-06-30T01:49:16.813Z,37.06
2023-06-30T01:50:16.930Z,37.05
2023-06-30T01:51:16.936Z,37.11
2023-06-30T01:52:16.984Z,37.04
2023-06-30T01:53:17.046Z,37.04
2023-06-30T01:54:17.094Z,37.03
2023-06-30T01:55:17.160Z,37.03
2023-06-30T01:56:17.201Z,37.05
2023-06-30T01:57:17.269Z,37.03
2023-06-30T01:58:17.343Z,37.12
2023-06-30T01:59:17.371Z,37.08
2023-06-30T02:00:17.427Z,37.09
2023-06-30T02:01:17.518Z,37.17
2023-06-30T02:02:17.526Z,37.13
2023-06-30T02:03:17.674Z,37.13
2023-06-30T02:04:17.674Z,37.10
2023-06-30T02:05:17.712Z,37.15
2023-06-30T02:06:17.766Z,37.09
2023-06-30T02:07:17.881Z,37.17
2023-06-30T02:08:17.871Z,37.16
2023-06-30T02:09:17.955Z,37.18
2023-06-30T02:10:18.009Z,37.17
2023-06-30T02:11:18.065Z,37.14
2023-06-30T02:12:18.114Z,37.15
2023-06-30T02:13:18.202Z,37.18
2023-06-30T02:14:18.219Z,37.18
2023-06-30T02:15:18.291Z,37.18
2023-06-30T02:16:18.440Z,37.18
2023-06-30T02:17:18.412Z,37.24
2023-06-30T02:18:18.463Z,37.22
2023-06-30T02:19:18.529Z,37.18
2023-06-30T02:20:18.565Z,37.18
2023-06-30T02:21:18.514Z,37.22
2023-06-30T02:22:18.498Z,37.22
2023-06-30T02:23:18.507Z,37.19
2023-06-30T02:24:18.502Z,37.25
2023-06-30T02:25:18.509Z,37.22
2023-06-30T02:26:18.495Z,37.25
2023-06-30T02:27:18.504Z,37.22
2023-06-30T02:28:18.661Z,37.28
2023-06-30T02:29:18.490Z,37.28
2023-06-30T02:30:18.549Z,37.29
2023-06-30T02:31:18.729Z,37.25
2023-06-30T02:32:18.688Z,37.27
2023-06-30T02:33:18.718Z,37.23
2023-06-30T02:34:18.793Z,37.25
2023-06-30T02:35:18.910Z,37.25
2023-06-30T02:36:18.901Z,37.25
2023-06-30T02:37:18.976Z,37.29
2023-06-30T02:38:19.021Z,37.32
2023-06-30T02:39:19.084Z,37.29
2023-06-30T02:40:19.163Z,37.28
2023-06-30T02:41:19.222Z,37.29
2023-06-30T02:42:19.257Z,37.32
2023-06-30T02:43:19.321Z,37.29
2023-06-30T02:44:19.358Z,37.31
2023-06-30T02:45:19.368Z,37.31
2023-06-30T02:46:19.410Z,37.28
2023-06-30T02:47:19.386Z,37.34
2023-06-30T02:48:19.336Z,37.30
2023-06-30T02:49:19.326Z,37.33
2023-06-30T02:50:19.344Z,37.31
2023-06-30T02:51:19.330Z,37.33
2023-06-30T02:52:19.328Z,37.33
2023-06-30T02:53:19.327Z,37.40
2023-06-30T02:54:19.355Z,37.41
2023-06-30T02:55:19.419Z,37.39
2023-06-30T02:56:19.487Z,37.42
2023-06-30T02:57:19.538Z,37.36
2023-06-30T02:58:19.624Z,37.46
2023-06-30T02:59:19.592Z,37.41
2023-06-30T03:00:19.596Z,37.39
2023-06-30T03:01:19.691Z,37.42
2023-06-30T03:02:19.736Z,37.42
2023-06-30T03:03:19.690Z,37.43
2023-06-30T03:04:19.594Z,37.43
2023-06-30T03:05:19.603Z,37.39
2023-06-30T03:06:19.610Z,37.39
2023-06-30T03:07:19.637Z,37.41
2023-06-30T03:08:19.602Z,37.42
2023-06-30T03:09:19.665Z,37.43
2023-06-30T03:10:19.767Z,37.39
2023-06-30T03:11:19.803Z,37.39
2023-06-30T03:12:19.880Z,37.39
2023-06-30T03:13:19.872Z,37.45
2023-06-30T03:14:19.882Z,37.39
2023-06-30T03:15:19.885Z,37.41
2023-06-30T03:16:19.916Z,37.39
2023-06-30T03:17:19.904Z,37.38
2023-06-30T03:18:19.864Z,37.42
2023-06-30T03:19:19.859Z,37.39
2023-06-30T03:20:19.881Z,37.43
2023-06-30T03:21:19.872Z,37.49
2023-06-30T03:22:19.924Z,37.43
2023-06-30T03:23:20.038Z,37.47
2023-06-30T03:24:20.033Z,37.43
2023-06-30T03:25:20.089Z,37.42
2023-06-30T03:26:20.171Z,37.44
2023-06-30T03:27:20.227Z,37.41
2023-06-30T03:28:20.300Z,37.49
2023-06-30T03:29:20.387Z,37.46
2023-06-30T03:30:20.461Z,37.44
2023-06-30T03:31:20.590Z,37.44
2023-06-30T03:32:20.573Z,37.49
2023-06-30T03:33:20.617Z,37.50
2023-06-30T03:34:20.669Z,37.50
2023-06-30T03:35:20.758Z,37.49
2023-06-30T03:36:20.800Z,37.50
2023-06-30T03:38:39.625Z,37.51
2023-06-30T03:39:39.635Z,37.51
2023-06-30T03:40:39.672Z,37.54
2023-06-30T03:41:39.626Z,37.57
2023-06-30T03:42:39.611Z,37.59
2023-06-30T03:43:39.605Z,37.54
2023-06-30T03:44:39.654Z,37.52
2023-06-30T03:45:39.790Z,37.57
2023-06-30T03:46:39.663Z,37.55
2023-06-30T03:47:39.643Z,37.52
2023-06-30T03:48:39.587Z,37.52
2023-06-30T03:49:39.579Z,37.58
2023-06-30T03:50:39.570Z,37.58
2023-06-30T03:51:39.561Z,37.59
2023-06-30T03:52:39.535Z,37.63
2023-06-30T03:53:39.521Z,37.60
2023-06-30T03:54:39.500Z,37.59
2023-06-30T03:55:39.513Z,37.55
2023-06-30T03:56:39.484Z,37.60
2023-06-30T03:57:39.486Z,37.60
2023-06-30T03:58:39.476Z,37.62
2023-06-30T03:59:39.462Z,37.63
2023-06-30T04:00:39.450Z,37.60
2023-06-30T04:01:39.429Z,37.64
2023-06-30T04:02:39.506Z,37.63
2023-06-30T04:03:39.556Z,37.62
2023-06-30T04:04:39.592Z,37.60
2023-06-30T04:05:39.424Z,37.59
2023-06-30T04:06:39.410Z,37.67
2023-06-30T04:07:39.490Z,37.62
2023-06-30T04:08:39.394Z,37.59
2023-06-30T04:09:39.389Z,37.62
2023-06-30T04:10:39.393Z,37.59
2023-06-30T04:11:39.374Z,37.63
2023-06-30T04:12:39.362Z,37.60
2023-06-30T04:13:39.353Z,37.60
2023-06-30T04:14:39.342Z,37.59
2023-06-30T04:15:39.345Z,37.62
2023-06-30T04:16:39.400Z,37.66
2023-06-30T04:17:39.388Z,37.63
2023-06-30T04:18:39.378Z,37.67
2023-06-30T04:19:39.448Z,37.67
2023-06-30T04:20:39.518Z,37.67
2023-06-30T04:21:39.568Z,37.66
2023-06-30T04:22:39.642Z,37.63
2023-06-30T04:23:39.707Z,37.63
2023-06-30T04:24:39.764Z,37.70
2023-06-30T04:25:39.830Z,37.70
2023-06-30T04:26:39.863Z,37.70
2023-06-30T04:27:39.931Z,37.71
2023-06-30T04:28:39.971Z,37.66
2023-06-30T04:29:40.043Z,37.66
2023-06-30T04:30:40.126Z,37.68
2023-06-30T04:31:40.193Z,37.68
2023-06-30T04:32:40.293Z,37.67
2023-06-30T04:33:40.286Z,37.67
2023-06-30T04:34:40.332Z,37.71
2023-06-30T04:35:40.423Z,37.74
2023-06-30T04:36:40.408Z,37.67
2023-06-30T04:37:40.484Z,37.70
2023-06-30T04:38:40.554Z,37.68
2023-06-30T04:39:40.580Z,37.64
2023-06-30T04:40:40.646Z,37.73
2023-06-30T04:41:40.687Z,37.70
2023-06-30T04:42:40.731Z,37.73
2023-06-30T04:43:40.796Z,37.73
2023-06-30T04:44:40.851Z,37.74
2023-06-30T04:45:40.913Z,37.73
2023-06-30T04:46:41.092Z,37.73
2023-06-30T04:47:41.056Z,37.71
2023-06-30T04:48:41.081Z,37.75
2023-06-30T04:49:41.147Z,37.72
2023-06-30T04:50:41.205Z,37.75
2023-06-30T04:51:41.263Z,37.77
2023-06-30T04:52:41.316Z,37.75
2023-06-30T04:53:41.362Z,37.78
2023-06-30T04:54:41.429Z,37.80
2023-06-30T04:55:41.519Z,37.73
2023-06-30T04:56:41.588Z,37.75
2023-06-30T04:57:41.611Z,37.82
2023-06-30T04:58:41.671Z,37.79
2023-06-30T04:59:41.756Z,37.82
2023-06-30T05:00:41.798Z,37.79
2023-06-30T05:01:41.864Z,37.80
2023-06-30T05:02:41.944Z,37.79
2023-06-30T05:03:42.010Z,37.84
2023-06-30T05:04:42.059Z,37.86
2023-06-30T05:05:42.134Z,37.81
2023-06-30T05:06:42.190Z,37.81
2023-06-30T05:07:42.298Z,37.88
2023-06-30T05:08:42.306Z,37.81
2023-06-30T05:09:42.372Z,37.75
2023-06-30T05:10:42.445Z,37.82
2023-06-30T05:11:42.506Z,37.83
2023-06-30T05:12:42.547Z,37.87
2023-06-30T05:13:42.619Z,37.88
2023-06-30T05:14:42.699Z,37.91
2023-06-30T05:15:42.888Z,37.85
2023-06-30T05:16:42.875Z,37.88
2023-06-30T05:17:42.899Z,37.91
2023-06-30T05:18:42.951Z,37.96
2023-06-30T05:19:43.001Z,37.90
2023-06-30T05:20:43.066Z,37.93
2023-06-30T05:21:43.108Z,37.93
2023-06-30T05:22:43.190Z,37.96
2023-06-30T05:23:43.244Z,37.96
2023-06-30T05:24:43.301Z,37.99
2023-06-30T05:25:43.655Z,37.96
2023-06-30T05:26:43.412Z,37.97
2023-06-30T05:27:43.457Z,37.96
2023-06-30T05:28:50.021Z,37.96
2023-06-30T05:29:44.566Z,38.01
2023-06-30T05:30:43.537Z,38.01
2023-06-30T05:31:43.540Z,38.01
2023-06-30T05:32:43.530Z,38.00
2023-06-30T05:33:43.537Z,38.02
2023-06-30T05:34:43.500Z,38.04
2023-06-30T05:35:43.747Z,38.06
2023-06-30T05:36:43.525Z,38.03
2023-06-30T05:37:43.574Z,37.99
2023-06-30T05:38:43.613Z,37.95
2023-06-30T05:39:43.667Z,37.84
2023-06-30T05:40:43.748Z,37.65
2023-06-30T05:41:43.793Z,37.55
2023-06-30T05:42:43.837Z,37.84
2023-06-30T05:43:43.899Z,37.95
2023-06-30T05:44:44.018Z,38.55
2023-06-30T05:45:44.170Z,38.62
2023-06-30T05:46:43.992Z,38.68
2023-06-30T05:47:43.981Z,38.98
2023-06-30T05:48:43.922Z,39.12
2023-06-30T05:49:43.967Z,39.18
2023-06-30T05:50:43.965Z,39.00
2023-06-30T05:51:43.933Z,39.27
2023-06-30T05:52:43.944Z,39.09
2023-06-30T05:53:43.931Z,39.23
2023-06-30T05:54:43.961Z,39.36
2023-06-30T05:55:44.116Z,39.47
2023-06-30T05:56:43.918Z,39.63
2023-06-30T05:57:43.923Z,39.68
2023-06-30T05:58:43.917Z,39.94
2023-06-30T05:59:43.926Z,40.07
2023-06-30T06:00:43.948Z,40.29
2023-06-30T06:01:43.907Z,40.28
2023-06-30T06:02:43.980Z,40.43
2023-06-30T06:03:44.198Z,40.61
2023-06-30T06:04:44.191Z,40.57
2023-06-30T06:05:44.438Z,40.84
2023-06-30T06:06:43.896Z,39.80
2023-06-30T06:07:44.115Z,40.65
2023-06-30T06:08:43.873Z,40.82
2023-06-30T06:09:43.857Z,40.38
2023-06-30T06:10:43.864Z,40.55
2023-06-30T06:11:43.864Z,40.67
2023-06-30T06:12:43.847Z,40.89
2023-06-30T06:13:43.831Z,40.42
2023-06-30T06:14:43.834Z,40.93
2023-06-30T06:15:44.151Z,40.69
2023-06-30T06:16:43.894Z,41.25
2023-06-30T06:17:43.854Z,40.65
2023-06-30T06:18:43.779Z,40.89
2023-06-30T06:19:43.769Z,41.20
2023-06-30T06:20:44.862Z,41.38
2023-06-30T06:21:43.769Z,41.64
2023-06-30T06:22:43.771Z,41.75
2023-06-30T06:23:43.776Z,41.74
2023-06-30T06:24:43.783Z,41.78
2023-06-30T06:25:45.440Z,41.71
2023-06-30T06:26:43.746Z,41.52
2023-06-30T06:27:43.758Z,41.70
2023-06-30T06:28:43.750Z,41.78
2023-06-30T06:29:43.717Z,41.82
2023-06-30T06:30:43.769Z,41.96
2023-06-30T06:31:43.700Z,41.85
2023-06-30T06:32:43.741Z,41.83
2023-06-30T06:33:43.708Z,41.91
2023-06-30T06:34:43.677Z,42.08
2023-06-30T06:35:44.001Z,42.14
2023-06-30T06:36:43.676Z,42.26
2023-06-30T06:37:43.659Z,42.38
2023-06-30T06:38:43.631Z,42.52
2023-06-30T06:39:43.627Z,42.55
2023-06-30T06:40:43.640Z,42.63
2023-06-30T06:41:43.631Z,42.76
2023-06-30T06:42:43.613Z,42.14
2023-06-30T06:43:43.606Z,41.49
2023-06-30T06:44:43.621Z,41.98
2023-06-30T06:45:44.002Z,41.94
2023-06-30T06:46:43.663Z,42.63
2023-06-30T06:47:43.607Z,42.30
2023-06-30T06:48:43.541Z,42.57
2023-06-30T06:49:46.106Z,41.98
2023-06-30T06:50:43.518Z,41.83
2023-06-30T06:51:43.624Z,41.87
2023-06-30T06:52:43.486Z,41.82
2023-06-30T06:53:43.530Z,41.62
2023-06-30T06:54:43.569Z,41.62
2023-06-30T06:55:43.655Z,41.40
2023-06-30T06:56:43.441Z,41.37
2023-06-30T06:57:43.427Z,41.14
2023-06-30T06:58:43.411Z,41.28
2023-06-30T06:59:43.408Z,41.22
2023-06-30T07:00:43.401Z,41.13
2023-06-30T07:01:43.460Z,41.20
2023-06-30T07:02:43.401Z,41.16
2023-06-30T07:03:43.372Z,40.72
2023-06-30T07:04:43.334Z,41.06
2023-06-30T07:05:43.582Z,41.10
2023-06-30T07:06:43.335Z,40.98
2023-06-30T07:07:43.402Z,41.06
2023-06-30T07:08:43.337Z,40.98
2023-06-30T07:09:43.308Z,40.92
2023-06-30T07:10:43.311Z,41.08
2023-06-30T07:11:43.900Z,41.01
2023-06-30T07:12:43.289Z,41.11
2023-06-30T07:13:43.286Z,41.11
2023-06-30T07:14:45.847Z,41.17
2023-06-30T07:15:43.549Z,41.13
2023-06-30T07:16:43.341Z,41.00
2023-06-30T07:17:43.303Z,41.11
2023-06-30T07:18:43.296Z,41.03
2023-06-30T07:19:43.261Z,40.95
2023-06-30T07:20:43.237Z,41.08
2023-06-30T07:21:43.295Z,41.11
2023-06-30T07:22:43.247Z,40.98
2023-06-30T07:23:43.931Z,41.09
2023-06-30T07:24:44.233Z,40.93
2023-06-30T07:25:43.690Z,41.03
2023-06-30T07:26:43.520Z,41.05
2023-06-30T07:27:43.587Z,41.13
2023-06-30T07:28:43.617Z,41.23
2023-06-30T07:29:43.649Z,41.30
2023-06-30T07:30:43.790Z,41.29
2023-06-30T07:31:43.786Z,41.27
2023-06-30T07:32:43.857Z,41.11
2023-06-30T07:33:43.882Z,40.90
2023-06-30T07:34:43.970Z,40.74
2023-06-30T07:35:44.644Z,40.59
2023-06-30T07:36:44.212Z,41.71
2023-06-30T07:37:44.073Z,41.57
2023-06-30T07:38:44.142Z,41.43
2023-06-30T07:39:44.191Z,41.51
2023-06-30T07:40:55.281Z,41.78
2023-06-30T07:41:45.267Z,42.53
2023-06-30T07:42:44.238Z,42.30
2023-06-30T07:43:44.214Z,42.27
2023-06-30T07:44:44.216Z,43.05
2023-06-30T07:45:44.660Z,42.73
2023-06-30T07:46:44.196Z,43.17
2023-06-30T07:47:44.289Z,43.53
2023-06-30T07:48:44.281Z,43.19
2023-06-30T07:49:44.235Z,43.06
2023-06-30T07:50:54.745Z,43.50
2023-06-30T07:51:45.213Z,43.43
2023-06-30T07:52:44.310Z,43.48
2023-06-30T07:53:44.177Z,43.17
2023-06-30T07:54:44.207Z,43.23
2023-06-30T07:55:44.513Z,42.71
2023-06-30T07:56:44.171Z,43.47
2023-06-30T07:57:44.265Z,43.30
2023-06-30T07:58:44.205Z,42.94
2023-06-30T07:59:44.186Z,43.01
2023-06-30T08:00:44.197Z,42.99
2023-06-30T08:01:44.202Z,42.75
2023-06-30T08:02:44.262Z,42.74
2023-06-30T08:03:44.392Z,42.50
2023-06-30T08:04:44.462Z,42.62
2023-06-30T08:05:44.739Z,42.75
2023-06-30T08:06:44.211Z,42.78
2023-06-30T08:07:50.307Z,42.51
2023-06-30T08:08:45.232Z,42.25
2023-06-30T08:09:44.264Z,42.12
2023-06-30T08:10:45.007Z,42.53
2023-06-30T08:11:44.210Z,42.46
2023-06-30T08:12:44.227Z,42.44
2023-06-30T08:13:44.207Z,42.46
2023-06-30T08:14:44.206Z,42.21
2023-06-30T08:15:46.665Z,42.57
2023-06-30T08:16:44.238Z,42.57
2023-06-30T08:17:53.195Z,42.37
2023-06-30T08:18:51.168Z,42.24
2023-06-30T08:19:48.428Z,41.98
2023-06-30T08:20:44.303Z,42.52
2023-06-30T08:21:44.231Z,42.43
2023-06-30T08:22:46.344Z,42.72
2023-06-30T08:23:44.180Z,42.39
2023-06-30T08:24:44.172Z,41.91
2023-06-30T08:25:44.628Z,41.79
2023-06-30T08:26:44.145Z,41.62
2023-06-30T08:27:44.153Z,41.73
2023-06-30T08:28:44.125Z,41.61
2023-06-30T08:29:44.192Z,41.50
2023-06-30T08:30:44.164Z,41.73
2023-06-30T08:31:44.118Z,41.94
2023-06-30T08:32:44.170Z,42.07
2023-06-30T08:33:44.150Z,42.73
2023-06-30T08:34:44.104Z,42.96
2023-06-30T08:35:44.304Z,43.17
2023-06-30T08:36:44.127Z,43.31
2023-06-30T08:37:44.108Z,43.65
2023-06-30T08:38:44.179Z,43.90
2023-06-30T08:39:44.114Z,44.15
2023-06-30T08:40:44.116Z,44.09
2023-06-30T08:41:44.144Z,44.61
2023-06-30T08:42:44.200Z,44.24
2023-06-30T08:43:44.141Z,44.51
2023-06-30T08:44:44.142Z,44.45
2023-06-30T08:45:44.502Z,44.53
2023-06-30T08:46:44.186Z,44.73
2023-06-30T08:47:44.167Z,45.09
2023-06-30T08:48:44.144Z,45.03
2023-06-30T08:49:44.147Z,44.92
2023-06-30T08:50:44.148Z,45.10
2023-06-30T08:51:44.147Z,44.86
2023-06-30T08:52:44.151Z,44.90
2023-06-30T08:53:44.224Z,44.74
2023-06-30T08:54:44.172Z,44.76
2023-06-30T08:55:44.393Z,44.82
2023-06-30T08:56:44.157Z,44.77
2023-06-30T08:57:44.203Z,44.81
2023-06-30T08:58:44.246Z,44.93
2023-06-30T08:59:44.263Z,44.70
2023-06-30T09:00:44.349Z,45.04
2023-06-30T09:01:47.010Z,45.17
2023-06-30T09:02:44.543Z,45.07
2023-06-30T09:03:44.435Z,45.23
2023-06-30T09:04:44.425Z,45.20
2023-06-30T09:05:44.518Z,45.02
2023-06-30T09:06:44.382Z,45.31
2023-06-30T09:07:44.540Z,45.15
2023-06-30T09:08:44.380Z,45.11
2023-06-30T09:09:44.381Z,45.49
2023-06-30T09:10:44.417Z,45.35
2023-06-30T09:11:44.392Z,45.16
2023-06-30T09:12:44.394Z,45.36
2023-06-30T09:13:44.406Z,45.32
2023-06-30T09:14:44.403Z,45.72
2023-06-30T09:15:44.785Z,45.18
2023-06-30T09:16:44.454Z,45.70
2023-06-30T09:17:44.482Z,45.96
2023-06-30T09:18:44.431Z,46.03
2023-06-30T09:19:44.432Z,46.07
2023-06-30T09:20:44.458Z,45.70
2023-06-30T09:21:44.452Z,46.00
2023-06-30T09:22:55.100Z,45.81
2023-06-30T09:23:45.587Z,45.96
2023-06-30T09:24:44.454Z,45.88
2023-06-30T09:25:44.940Z,45.95
2023-06-30T09:26:44.472Z,45.95
2023-06-30T09:27:44.511Z,45.95
2023-06-30T09:28:44.479Z,46.08
2023-06-30T09:29:44.510Z,46.13
2023-06-30T09:30:44.516Z,46.06
2023-06-30T09:31:44.609Z,46.09
2023-06-30T09:32:44.652Z,45.54
2023-06-30T09:33:44.706Z,45.06
2023-06-30T09:34:44.774Z,45.23
2023-06-30T09:35:45.211Z,44.84
2023-06-30T09:36:44.905Z,44.59
2023-06-30T09:37:44.947Z,44.50
2023-06-30T09:38:44.975Z,44.29
2023-06-30T09:39:45.017Z,44.15
2023-06-30T09:40:45.053Z,44.10
2023-06-30T09:41:45.089Z,43.94
2023-06-30T09:42:46.123Z,43.86
2023-06-30T09:43:45.289Z,43.87
2023-06-30T09:44:45.327Z,43.75
2023-06-30T09:45:45.626Z,43.54
2023-06-30T09:46:45.505Z,43.51
2023-06-30T09:47:45.407Z,43.45
2023-06-30T09:48:45.423Z,43.56
2023-06-30T09:49:45.513Z,43.37
2023-06-30T09:50:45.442Z,43.32
2023-06-30T09:51:45.418Z,43.22
2023-06-30T09:52:45.420Z,43.11
2023-06-30T09:53:45.421Z,43.40
2023-06-30T09:54:45.431Z,43.17
2023-06-30T09:55:45.625Z,42.99
2023-06-30T09:56:45.449Z,43.05
2023-06-30T09:57:45.450Z,42.94
2023-06-30T09:58:45.461Z,42.95
2023-06-30T09:59:45.469Z,43.41
2023-06-30T10:00:45.470Z,43.62
2023-06-30T10:01:45.550Z,43.68
2023-06-30T10:02:45.676Z,43.34
2023-06-30T10:03:45.545Z,43.26
2023-06-30T10:04:45.494Z,43.29
2023-06-30T10:05:45.840Z,43.17
2023-06-30T10:06:45.441Z,43.16
2023-06-30T10:07:45.456Z,43.14
2023-06-30T10:08:45.443Z,43.20
2023-06-30T10:09:45.452Z,43.05
2023-06-30T10:10:45.501Z,42.98
2023-06-30T10:11:45.443Z,42.94
2023-06-30T10:12:45.471Z,42.99
2023-06-30T10:13:45.449Z,42.94
2023-06-30T10:14:45.449Z,42.82
2023-06-30T10:15:45.806Z,42.84
2023-06-30T10:16:45.448Z,42.67
2023-06-30T10:17:45.595Z,42.62
2023-06-30T10:18:45.469Z,42.74
2023-06-30T10:19:45.467Z,42.80
2023-06-30T10:20:49.489Z,42.82
2023-06-30T10:21:45.488Z,42.94
2023-06-30T10:22:45.494Z,42.87
2023-06-30T10:23:45.498Z,42.84
2023-06-30T10:24:45.497Z,42.83
2023-06-30T10:25:45.802Z,42.73
2023-06-30T10:26:45.550Z,42.79
2023-06-30T10:27:45.474Z,42.74
2023-06-30T10:28:45.513Z,42.72
2023-06-30T10:29:45.484Z,42.70
2023-06-30T10:30:45.476Z,42.76
2023-06-30T10:31:45.618Z,42.68
2023-06-30T10:32:45.513Z,42.82
2023-06-30T10:33:45.554Z,42.84
2023-06-30T10:34:45.520Z,42.70
2023-06-30T10:35:45.709Z,42.82
2023-06-30T10:36:45.523Z,42.97
2023-06-30T10:37:45.523Z,43.28
2023-06-30T10:38:45.516Z,43.10
2023-06-30T10:39:45.491Z,43.07
2023-06-30T10:40:45.499Z,43.05
2023-06-30T10:41:45.498Z,42.99
2023-06-30T10:42:45.525Z,42.99
2023-06-30T10:43:45.516Z,42.98
2023-06-30T10:44:45.504Z,42.97
2023-06-30T10:45:45.743Z,43.04
2023-06-30T10:46:45.481Z,42.84
2023-06-30T10:47:45.482Z,42.71
2023-06-30T10:48:45.474Z,42.63
2023-06-30T10:49:45.445Z,42.65
2023-06-30T10:50:45.576Z,42.58
2023-06-30T10:51:45.441Z,42.56
2023-06-30T10:52:45.444Z,42.52
2023-06-30T10:53:45.480Z,42.51
2023-06-30T10:54:45.544Z,42.49
2023-06-30T10:55:46.461Z,42.41
2023-06-30T10:56:45.623Z,42.35
2023-06-30T10:57:45.631Z,42.36
2023-06-30T10:58:45.691Z,42.29
2023-06-30T10:59:45.735Z,42.29
2023-06-30T11:00:45.826Z,42.27
2023-06-30T11:01:45.866Z,42.31
2023-06-30T11:02:45.995Z,42.23
2023-06-30T11:03:46.117Z,42.20
2023-06-30T11:04:46.153Z,42.22
2023-06-30T11:05:46.311Z,42.16
2023-06-30T11:06:46.145Z,42.09
2023-06-30T11:07:46.189Z,42.08
2023-06-30T11:08:46.253Z,42.11
2023-06-30T11:09:46.323Z,42.03
2023-06-30T11:10:46.384Z,41.96
2023-06-30T11:11:46.432Z,41.97
2023-06-30T11:12:46.432Z,41.99
2023-06-30T11:13:46.433Z,41.97
2023-06-30T11:14:46.436Z,41.91
2023-06-30T11:15:47.337Z,41.95
2023-06-30T11:16:46.408Z,41.89
2023-06-30T11:17:46.508Z,41.91
2023-06-30T11:18:46.491Z,41.88
2023-06-30T11:19:46.504Z,41.86
2023-06-30T11:20:46.415Z,41.84
2023-06-30T11:21:46.477Z,41.81
2023-06-30T11:22:46.557Z,41.77
2023-06-30T11:23:46.605Z,41.82
2023-06-30T11:24:46.635Z,41.84
2023-06-30T11:25:46.723Z,41.80
2023-06-30T11:26:46.761Z,41.80
2023-06-30T11:27:46.841Z,41.78
2023-06-30T11:28:46.854Z,41.78
2023-06-30T11:29:46.855Z,41.73
2023-06-30T11:30:46.883Z,41.84
2023-06-30T11:31:46.807Z,41.73
2023-06-30T11:32:46.883Z,41.65
2023-06-30T11:33:46.819Z,41.67
2023-06-30T11:34:46.820Z,41.59
2023-06-30T11:35:46.967Z,41.65
2023-06-30T11:36:46.789Z,41.73
2023-06-30T11:37:46.774Z,41.74
2023-06-30T11:38:47.159Z,41.69
2023-06-30T11:39:46.791Z,41.68
2023-06-30T11:40:46.757Z,41.76
2023-06-30T11:41:46.749Z,41.74
2023-06-30T11:42:46.831Z,41.73
2023-06-30T11:43:46.724Z,41.69
2023-06-30T11:44:46.727Z,41.74
2023-06-30T11:45:46.887Z,41.71
2023-06-30T11:46:46.812Z,41.74
2023-06-30T11:47:46.868Z,41.64
2023-06-30T11:48:46.886Z,41.65
2023-06-30T11:49:46.938Z,41.74
2023-06-30T11:50:47.218Z,41.77
2023-06-30T11:51:47.051Z,41.72
2023-06-30T11:52:47.122Z,41.71
2023-06-30T11:53:47.182Z,41.74
2023-06-30T11:54:47.228Z,41.74
2023-06-30T11:55:47.549Z,41.70
2023-06-30T11:56:47.336Z,41.78
2023-06-30T11:57:47.402Z,41.74
2023-06-30T11:58:47.454Z,41.73
2023-06-30T11:59:47.508Z,41.82
2023-06-30T12:00:47.783Z,41.82
2023-06-30T12:01:47.609Z,41.76
2023-06-30T12:02:49.617Z,41.82
2023-06-30T12:03:47.760Z,41.87
2023-06-30T12:04:47.753Z,41.95
2023-06-30T12:05:47.841Z,41.91
2023-06-30T12:06:47.652Z,41.98
2023-06-30T12:07:47.652Z,41.96
2023-06-30T12:08:47.640Z,41.99
2023-06-30T12:09:47.714Z,41.81
2023-06-30T12:10:47.669Z,41.66
2023-06-30T12:11:47.795Z,41.77
2023-06-30T12:12:47.612Z,41.86
2023-06-30T12:13:47.617Z,41.75
2023-06-30T12:14:47.591Z,41.83
2023-06-30T12:15:47.714Z,41.49
2023-06-30T12:16:47.709Z,41.37
2023-06-30T12:17:47.623Z,41.35
2023-06-30T12:18:47.563Z,41.33
2023-06-30T12:19:47.558Z,41.26
2023-06-30T12:20:47.567Z,41.22
2023-06-30T12:21:47.538Z,41.20
2023-06-30T12:22:47.543Z,41.16
2023-06-30T12:23:47.550Z,41.20
2023-06-30T12:24:47.544Z,41.17
2023-06-30T12:25:47.597Z,41.17
2023-06-30T12:26:47.535Z,41.17
2023-06-30T12:27:47.516Z,41.15
2023-06-30T12:28:47.551Z,41.12
2023-06-30T12:29:47.638Z,41.12
2023-06-30T12:30:47.882Z,41.12
2023-06-30T12:31:47.730Z,41.05
2023-06-30T12:32:47.787Z,41.01
2023-06-30T12:33:47.896Z,41.01
2023-06-30T12:34:47.890Z,40.98
2023-06-30T12:35:47.968Z,40.95
2023-06-30T12:36:48.001Z,41.00
2023-06-30T12:37:48.038Z,40.93
2023-06-30T12:38:48.101Z,40.92
2023-06-30T12:39:48.248Z,40.88
2023-06-30T12:40:48.351Z,40.84
2023-06-30T12:41:48.249Z,40.81
2023-06-30T12:42:48.294Z,40.80
2023-06-30T12:43:48.537Z,40.72
2023-06-30T12:44:48.386Z,40.78
2023-06-30T12:45:48.525Z,40.75
2023-06-30T12:46:48.475Z,40.76
2023-06-30T12:47:48.547Z,40.73
2023-06-30T12:48:48.617Z,40.72
2023-06-30T12:49:48.662Z,40.74
2023-06-30T12:50:48.892Z,40.70
2023-06-30T12:51:48.724Z,40.68
2023-06-30T12:52:48.773Z,40.76
2023-06-30T12:53:48.904Z,40.65